createdAt,value
2019-03-12T00:01:14.272Z,7.57
2019-03-12T00:04:02.726Z,7.53
2019-03-12T00:06:32.140Z,8.33
2019-03-12T00:09:20.591Z,9.50
2019-03-12T00:11:51.193Z,8.93
2019-03-12T00:14:20.738Z,7.33
2019-03-12T00:16:50.366Z,8.93
2019-03-12T00:19:22.286Z,8.40
2019-03-12T00:22:10.131Z,7.17
2019-03-12T00:24:40.112Z,7.03
2019-03-12T00:27:09.486Z,8.47
2019-03-12T00:29:39.001Z,8.10
2019-03-12T00:32:08.449Z,8.90
2019-03-12T00:34:38.300Z,8.87
2019-03-12T00:37:07.807Z,8.53
2019-03-12T00:39:37.582Z,7.63
2019-03-12T00:42:06.954Z,8.83
2019-03-12T00:44:36.545Z,8.50
2019-03-12T00:47:06.026Z,6.67
2019-03-12T00:49:35.468Z,5.97
2019-03-12T00:52:04.849Z,5.70
2019-03-12T00:54:34.298Z,5.17
2019-03-12T00:57:05.066Z,7.87
2019-03-12T00:59:34.852Z,6.27
2019-03-12T01:02:04.442Z,6.40
2019-03-12T01:04:34.001Z,5.63
2019-03-12T01:07:03.457Z,7.47
2019-03-12T01:09:32.853Z,5.80
2019-03-12T01:12:02.359Z,8.30
2019-03-12T01:14:31.765Z,5.20
2019-03-12T01:17:01.109Z,6.33
2019-03-12T01:19:30.455Z,5.63
2019-03-12T01:21:59.852Z,6.80
2019-03-12T01:24:29.274Z,11.43
2019-03-12T01:26:58.611Z,8.03
2019-03-12T01:29:27.965Z,8.23
2019-03-12T01:31:57.309Z,5.77
2019-03-12T01:34:45.729Z,6.40
2019-03-12T01:37:15.191Z,7.77
2019-03-12T01:39:44.582Z,5.97
2019-03-12T01:42:14.686Z,6.60
2019-03-12T01:44:44.036Z,9.27
2019-03-12T01:47:13.366Z,9.47
2019-03-12T01:49:42.747Z,11.40
2019-03-12T01:52:12.158Z,8.93
2019-03-12T01:54:41.617Z,12.00
2019-03-12T01:57:30.085Z,6.73
2019-03-12T01:59:59.502Z,8.97
2019-03-12T02:02:28.822Z,8.60
2019-03-12T02:04:58.226Z,9.43
2019-03-12T02:07:27.581Z,7.83
2019-03-12T02:09:57.017Z,8.87
2019-03-12T02:12:27.772Z,12.20
2019-03-12T02:15:16.385Z,8.53
2019-03-12T02:17:45.729Z,8.30
2019-03-12T02:20:16.255Z,6.90
2019-03-12T02:22:45.579Z,11.33
2019-03-12T02:25:16.457Z,9.63
2019-03-12T02:27:45.802Z,9.13
2019-03-12T02:30:16.699Z,7.23
2019-03-12T02:32:46.455Z,9.17
2019-03-12T02:35:34.971Z,9.73
2019-03-12T02:38:04.329Z,8.87
2019-03-12T02:40:33.654Z,11.07
2019-03-12T02:43:14.991Z,8.07
2019-03-12T02:45:45.501Z,8.90
2019-03-12T02:48:14.841Z,9.13
2019-03-12T02:50:44.533Z,10.47
2019-03-12T02:53:13.955Z,11.40
2019-03-12T02:55:44.412Z,15.73
2019-03-12T02:58:13.793Z,9.23
2019-03-12T03:00:43.194Z,9.63
2019-03-12T03:03:12.544Z,9.27
2019-03-12T03:05:53.046Z,10.73
2019-03-12T03:08:26.917Z,8.93
2019-03-12T03:10:56.364Z,9.83
2019-03-12T03:13:25.824Z,9.23
2019-03-12T03:15:55.175Z,8.60
2019-03-12T03:18:24.638Z,12.40
2019-03-12T03:20:54.159Z,11.40
2019-03-12T03:23:24.625Z,12.00
2019-03-12T03:25:54.186Z,8.70
2019-03-12T03:28:23.689Z,9.07
2019-03-12T03:30:53.108Z,9.23
2019-03-12T03:33:22.563Z,11.27
2019-03-12T03:35:51.996Z,9.87
2019-03-12T03:38:21.355Z,10.33
2019-03-12T03:40:50.875Z,9.90
2019-03-12T03:43:20.371Z,9.70
2019-03-12T03:45:50.411Z,9.17
2019-03-12T03:48:19.793Z,8.27
2019-03-12T03:50:49.193Z,10.97
2019-03-12T03:53:18.593Z,9.50
2019-03-12T03:55:48.024Z,8.90
2019-03-12T03:58:17.399Z,9.80
2019-03-12T04:00:46.841Z,12.13
2019-03-12T04:03:16.671Z,9.37
2019-03-12T04:05:46.096Z,8.63
2019-03-12T04:08:15.561Z,10.90
2019-03-12T04:10:45.019Z,10.00
2019-03-12T04:13:15.545Z,10.60
2019-03-12T04:15:44.942Z,11.20
2019-03-12T04:18:14.358Z,11.40
2019-03-12T04:20:43.790Z,11.87
2019-03-12T04:23:15.974Z,10.00
2019-03-12T04:25:44.388Z,13.17
2019-03-12T04:28:13.830Z,9.40
2019-03-12T04:30:43.601Z,11.33
2019-03-12T04:33:49.682Z,11.27
2019-03-12T04:36:20.379Z,11.03
2019-03-12T04:38:49.723Z,14.83
2019-03-12T04:41:19.488Z,13.00
2019-03-12T04:43:48.849Z,12.17
2019-03-12T04:46:19.080Z,12.97
2019-03-12T04:48:48.516Z,11.90
2019-03-12T04:51:17.846Z,12.43
2019-03-12T04:53:47.321Z,15.20
2019-03-12T04:56:17.787Z,16.27
2019-03-12T04:58:47.123Z,15.47
2019-03-12T05:01:16.487Z,14.10
2019-03-12T05:03:46.142Z,13.57
2019-03-12T05:06:15.593Z,17.03
2019-03-12T05:08:45.007Z,15.87
2019-03-12T05:11:14.520Z,15.20
2019-03-12T05:13:44.704Z,13.83
2019-03-12T05:16:14.075Z,16.63
2019-03-12T05:19:02.502Z,16.03
2019-03-12T05:21:31.877Z,17.03
2019-03-12T05:24:01.317Z,18.93
2019-03-12T05:26:33.354Z,17.83
2019-03-12T05:29:02.685Z,20.10
2019-03-12T05:31:32.229Z,17.73
2019-03-12T05:34:01.896Z,15.80
2019-03-12T05:36:32.455Z,17.00
2019-03-12T05:39:03.705Z,21.63
2019-03-12T05:41:33.169Z,18.10
2019-03-12T05:44:02.533Z,22.20
2019-03-12T05:46:33.339Z,18.20
2019-03-12T05:49:02.840Z,19.67
2019-03-12T05:51:32.220Z,18.27
2019-03-12T05:54:01.577Z,16.53
2019-03-12T05:56:30.939Z,17.97
2019-03-12T05:59:00.305Z,16.00
2019-03-12T06:01:29.709Z,19.07
2019-03-12T06:03:59.102Z,17.80
2019-03-12T06:06:28.554Z,16.37
2019-03-12T06:08:58.057Z,14.83
2019-03-12T06:11:27.802Z,16.90
2019-03-12T06:13:57.217Z,17.73
2019-03-12T06:16:26.532Z,19.57
2019-03-12T06:18:55.914Z,19.83
2019-03-12T06:21:25.448Z,18.07
2019-03-12T06:23:54.831Z,16.37
2019-03-12T06:26:24.179Z,17.63
2019-03-12T06:28:53.525Z,18.67
2019-03-12T06:31:57.351Z,15.23
2019-03-12T06:34:57.712Z,13.87
2019-03-12T06:37:44.853Z,16.07
2019-03-12T06:40:31.851Z,12.17
2019-03-12T06:43:15.817Z,16.10
2019-03-12T06:46:16.097Z,14.63
2019-03-12T06:49:03.651Z,15.33
2019-03-12T06:51:48.646Z,14.57
2019-03-12T06:54:55.489Z,14.67
2019-03-12T06:57:36.980Z,12.33
2019-03-12T07:00:19.517Z,12.13
2019-03-12T07:03:02.525Z,12.33
2019-03-12T07:05:51.305Z,9.53
2019-03-12T07:08:54.848Z,9.70
2019-03-12T07:11:41.841Z,10.47
2019-03-12T07:14:27.381Z,9.30
2019-03-12T07:17:13.639Z,9.37
2019-03-12T07:20:14.036Z,10.10
2019-03-12T07:23:02.775Z,9.43
2019-03-12T07:25:51.165Z,9.00
2019-03-12T07:28:50.188Z,8.93
2019-03-12T07:31:38.613Z,9.43
2019-03-12T07:34:36.872Z,13.03
2019-03-12T07:37:21.392Z,7.93
2019-03-12T07:40:20.417Z,5.20
2019-03-12T07:43:11.697Z,7.70
2019-03-12T07:45:49.536Z,7.20
2019-03-12T07:48:34.212Z,8.93
2019-03-12T07:51:25.306Z,6.57
2019-03-12T07:54:28.016Z,9.40
2019-03-12T07:57:06.964Z,6.10
2019-03-12T07:59:54.269Z,6.63
2019-03-12T08:02:50.703Z,6.37
2019-03-12T08:05:38.505Z,4.20
2019-03-12T08:08:26.355Z,4.83
2019-03-12T08:11:06.376Z,6.37
2019-03-12T08:13:56.856Z,4.63
2019-03-12T08:16:50.384Z,5.13
2019-03-12T08:19:38.696Z,6.20
2019-03-12T08:22:21.734Z,6.87
2019-03-12T08:25:10.084Z,4.73
2019-03-12T08:27:53.983Z,8.73
2019-03-12T08:30:37.592Z,5.57
2019-03-12T08:33:24.492Z,4.90
2019-03-12T08:36:12.069Z,4.20
2019-03-12T08:38:52.836Z,4.40
2019-03-12T08:41:46.912Z,5.10
2019-03-12T08:44:37.508Z,5.05
2019-03-12T08:47:14.028Z,5.37
2019-03-12T08:50:01.684Z,3.50
2019-03-12T08:52:48.514Z,2.93
2019-03-12T08:55:45.965Z,4.07
2019-03-12T08:58:33.793Z,2.90
2019-03-12T09:01:19.199Z,2.73
2019-03-12T09:04:25.737Z,3.63
2019-03-12T09:07:10.129Z,2.33
2019-03-12T09:09:51.183Z,3.83
2019-03-12T09:12:39.844Z,8.50
2019-03-12T09:15:33.989Z,2.77
2019-03-12T09:18:20.676Z,3.87
2019-03-12T09:20:59.007Z,4.63
2019-03-12T09:23:50.152Z,4.90
2019-03-12T09:26:47.786Z,5.97
2019-03-12T09:29:33.482Z,6.97
2019-03-12T09:32:24.257Z,4.27
2019-03-12T09:35:15.345Z,6.13
2019-03-12T09:38:32.828Z,3.77
2019-03-12T09:41:29.985Z,4.17
2019-03-12T09:44:19.608Z,3.77
2019-03-12T09:47:16.749Z,7.23
2019-03-12T09:49:59.823Z,5.43
2019-03-12T09:53:03.304Z,7.23
2019-03-12T09:55:50.639Z,2.90
2019-03-12T09:58:41.712Z,6.13
2019-03-12T10:01:32.515Z,3.13
2019-03-12T10:04:07.176Z,3.97
2019-03-12T10:07:01.533Z,4.50
2019-03-12T10:09:49.637Z,3.43
2019-03-12T10:12:29.024Z,3.83
2019-03-12T10:15:30.709Z,5.20
2019-03-12T10:18:10.801Z,3.00
2019-03-12T10:20:57.094Z,3.67
2019-03-12T10:23:45.388Z,3.60
2019-03-12T10:26:33.665Z,2.70
2019-03-12T10:29:25.153Z,4.20
2019-03-12T10:32:16.256Z,3.47
2019-03-12T10:35:13.580Z,2.37
2019-03-12T10:37:49.443Z,2.50
2019-03-12T10:40:43.660Z,5.03
2019-03-12T10:43:30.565Z,7.23
2019-03-12T10:46:17.908Z,8.97
2019-03-12T10:48:47.323Z,5.70
2019-03-12T10:51:16.652Z,4.33
2019-03-12T10:54:05.057Z,6.35
2019-03-12T10:56:34.915Z,4.87
2019-03-12T10:59:04.276Z,4.60
2019-03-12T11:01:33.881Z,3.70
2019-03-12T11:04:03.314Z,5.03
2019-03-12T11:06:51.805Z,4.20
2019-03-12T11:09:21.433Z,3.13
2019-03-12T11:11:50.797Z,3.03
2019-03-12T11:14:20.237Z,3.73
2019-03-12T11:16:49.607Z,2.10
2019-03-12T11:19:18.962Z,4.23
2019-03-12T11:21:48.407Z,2.03
2019-03-12T11:24:17.728Z,4.07
2019-03-12T11:26:47.252Z,2.13
2019-03-12T11:29:16.654Z,5.90
2019-03-12T11:31:46.050Z,2.47
2019-03-12T11:34:15.401Z,1.87
2019-03-12T11:36:45.003Z,4.63
2019-03-12T11:39:14.436Z,1.70
2019-03-12T11:41:43.863Z,3.00
2019-03-12T11:44:13.359Z,2.57
2019-03-12T11:46:45.701Z,10.83
2019-03-12T11:49:13.897Z,3.50
2019-03-12T11:51:43.352Z,1.90
2019-03-12T11:54:12.801Z,1.70
2019-03-12T11:56:44.030Z,1.57
2019-03-12T11:59:13.976Z,1.87
2019-03-12T12:01:43.415Z,1.40
2019-03-12T12:04:12.769Z,1.57
2019-03-12T12:06:42.993Z,1.60
2019-03-12T12:09:32.180Z,3.70
2019-03-12T12:12:01.513Z,1.57
2019-03-12T12:14:30.891Z,1.83
2019-03-12T12:17:01.298Z,2.17
2019-03-12T12:19:31.041Z,3.50
2019-03-12T12:22:00.473Z,1.60
2019-03-12T12:24:29.827Z,3.97
2019-03-12T12:26:59.214Z,2.80
2019-03-12T12:29:28.591Z,6.53
2019-03-12T12:31:58.050Z,5.63
2019-03-12T12:34:27.518Z,3.80
2019-03-12T12:36:56.917Z,5.10
2019-03-12T12:39:26.281Z,4.63
2019-03-12T12:41:55.663Z,3.70
2019-03-12T12:44:24.999Z,2.50
2019-03-12T12:46:54.435Z,6.60
2019-03-12T12:49:23.906Z,4.27
2019-03-12T12:51:53.365Z,2.30
2019-03-12T12:54:41.825Z,5.50
2019-03-12T12:57:11.295Z,2.57
2019-03-12T12:59:40.653Z,2.47
2019-03-12T13:02:22.207Z,2.67
2019-03-12T13:04:51.621Z,2.77
2019-03-12T13:07:20.952Z,1.67
2019-03-12T13:09:52.153Z,4.03
2019-03-12T13:12:21.539Z,3.73
2019-03-12T13:14:50.887Z,4.33
2019-03-12T13:17:20.262Z,6.00
2019-03-12T13:19:49.880Z,4.60
2019-03-12T13:22:19.312Z,3.90
2019-03-12T13:24:48.703Z,4.13
2019-03-12T13:27:18.051Z,4.70
2019-03-12T13:29:47.395Z,4.97
2019-03-12T13:32:16.772Z,1.60
2019-03-12T13:34:46.198Z,4.47
2019-03-12T13:37:15.540Z,2.10
2019-03-12T13:39:44.904Z,3.77
2019-03-12T13:42:14.301Z,3.20
2019-03-12T13:44:43.698Z,2.73
2019-03-12T13:47:13.173Z,1.97
2019-03-12T13:49:42.537Z,3.40
2019-03-12T13:52:11.958Z,3.80
2019-03-12T13:54:41.428Z,4.30
2019-03-12T13:57:10.865Z,6.83
2019-03-12T13:59:40.291Z,4.47
2019-03-12T14:02:09.795Z,6.80
2019-03-12T14:04:39.782Z,3.00
2019-03-12T14:07:09.103Z,3.50
2019-03-12T14:09:38.469Z,1.60
2019-03-12T14:12:07.807Z,3.70
2019-03-12T14:14:37.185Z,5.90
2019-03-12T14:17:08.523Z,4.80
2019-03-12T14:19:39.576Z,3.07
2019-03-12T14:22:10.100Z,5.77
2019-03-12T14:24:39.509Z,2.63
2019-03-12T14:27:08.844Z,1.93
2019-03-12T14:29:38.250Z,6.97
2019-03-12T14:32:07.733Z,2.13
2019-03-12T14:34:37.103Z,2.73
2019-03-12T14:37:06.647Z,2.63
2019-03-12T14:39:36.062Z,2.43
2019-03-12T14:42:05.518Z,4.63
2019-03-12T14:44:34.873Z,2.27
2019-03-12T14:47:06.183Z,3.87
2019-03-12T14:49:35.488Z,8.53
2019-03-12T14:52:35.185Z,8.60
2019-03-12T14:55:04.796Z,8.10
2019-03-12T14:57:34.109Z,4.67
2019-03-12T15:00:03.480Z,4.17
2019-03-12T15:02:32.843Z,9.33
2019-03-12T15:05:02.626Z,6.47
2019-03-12T15:07:32.026Z,4.47
2019-03-12T15:10:01.390Z,7.20
2019-03-12T15:12:30.758Z,4.87
2019-03-12T15:15:00.353Z,7.87
2019-03-12T15:17:29.714Z,6.83
2019-03-12T15:19:59.149Z,6.77
2019-03-12T15:22:28.732Z,6.70
2019-03-12T15:24:58.088Z,5.57
2019-03-12T15:27:27.404Z,5.03
2019-03-12T15:29:56.775Z,3.57
2019-03-12T15:32:26.123Z,2.87
2019-03-12T15:34:55.511Z,8.97
2019-03-12T15:37:24.863Z,6.67
2019-03-12T15:39:54.216Z,4.35
2019-03-12T15:42:23.583Z,6.67
2019-03-12T15:44:53.286Z,2.77
2019-03-12T15:47:22.821Z,13.00
2019-03-12T15:49:52.163Z,2.73
2019-03-12T15:52:21.580Z,6.23
2019-03-12T15:54:50.991Z,4.23
2019-03-12T15:57:20.350Z,2.63
2019-03-12T15:59:49.746Z,5.83
2019-03-12T16:02:19.111Z,4.27
2019-03-12T16:04:48.525Z,7.47
2019-03-12T16:07:19.124Z,1.73
2019-03-12T16:09:48.471Z,3.87
2019-03-12T16:12:17.813Z,5.17
2019-03-12T16:14:47.287Z,3.60
2019-03-12T16:17:16.627Z,2.80
2019-03-12T16:19:45.971Z,3.57
2019-03-12T16:22:15.387Z,8.03
2019-03-12T16:24:44.764Z,2.97
2019-03-12T16:27:14.175Z,2.73
2019-03-12T16:29:43.555Z,5.67
2019-03-12T16:32:12.930Z,3.47
2019-03-12T16:34:42.273Z,6.73
2019-03-12T16:37:11.679Z,2.90
2019-03-12T16:39:41.027Z,4.40
2019-03-12T16:42:10.397Z,3.77
2019-03-12T16:44:39.875Z,5.80
2019-03-12T16:47:09.302Z,10.53
2019-03-12T16:49:38.695Z,6.93
2019-03-12T16:52:08.175Z,4.83
2019-03-12T16:54:37.753Z,3.97
2019-03-12T16:57:06.483Z,2.13
2019-03-12T16:59:35.223Z,3.10
2019-03-12T17:02:03.928Z,1.50
2019-03-12T17:04:32.796Z,2.47
2019-03-12T17:07:02.203Z,1.97
2019-03-12T17:09:33.889Z,1.20
2019-03-12T17:12:03.225Z,2.30
2019-03-12T17:14:38.661Z,6.63
2019-03-12T17:17:05.023Z,3.23
2019-03-12T17:19:36.767Z,6.87
2019-03-12T17:22:07.027Z,4.10
2019-03-12T17:24:37.042Z,2.40
2019-03-12T17:27:07.274Z,2.90
2019-03-12T17:29:37.399Z,3.30
2019-03-12T17:32:07.390Z,3.30
2019-03-12T17:34:37.482Z,6.50
2019-03-12T17:37:07.710Z,8.07
2019-03-12T17:39:37.970Z,6.70
2019-03-12T17:42:08.228Z,5.13
2019-03-12T17:44:38.476Z,10.57
2019-03-12T17:47:08.553Z,3.03
2019-03-12T17:49:38.766Z,4.80
2019-03-12T17:52:09.004Z,5.13
2019-03-12T17:54:39.170Z,4.03
2019-03-12T17:57:09.661Z,3.90
2019-03-12T17:59:39.888Z,8.50
2019-03-12T18:02:10.126Z,3.17
2019-03-12T18:04:40.356Z,3.97
2019-03-12T18:07:10.709Z,3.77
2019-03-12T18:09:40.823Z,6.07
2019-03-12T18:12:12.799Z,8.23
2019-03-12T18:14:42.883Z,3.33
2019-03-12T18:17:13.093Z,4.57
2019-03-12T18:19:43.135Z,5.07
2019-03-12T18:22:13.449Z,5.70
2019-03-12T18:24:43.675Z,3.03
2019-03-12T18:27:13.848Z,6.93
2019-03-12T18:29:44.124Z,3.83
2019-03-12T18:32:14.441Z,3.73
2019-03-12T18:34:44.624Z,6.00
2019-03-12T18:37:15.073Z,4.20
2019-03-12T18:39:45.504Z,2.87
2019-03-12T18:42:16.104Z,3.13
2019-03-12T18:44:46.561Z,5.03
2019-03-12T18:47:19.248Z,5.83
2019-03-12T18:49:49.478Z,2.97
2019-03-12T18:52:19.878Z,2.27
2019-03-12T18:54:50.029Z,2.60
2019-03-12T18:57:20.344Z,4.20
2019-03-12T18:59:50.240Z,6.40
2019-03-12T19:02:20.278Z,3.80
2019-03-12T19:04:50.613Z,4.77
2019-03-12T19:07:21.061Z,8.70
2019-03-12T19:09:51.256Z,4.50
2019-03-12T19:12:22.309Z,5.17
2019-03-12T19:14:52.393Z,5.20
2019-03-12T19:17:22.421Z,8.10
2019-03-12T19:19:52.344Z,3.00
2019-03-12T19:22:22.327Z,5.63
2019-03-12T19:24:52.480Z,7.00
2019-03-12T19:27:22.431Z,9.17
2019-03-12T19:29:52.547Z,2.83
2019-03-12T19:32:35.836Z,5.00
2019-03-12T19:35:08.409Z,5.50
2019-03-12T19:37:38.981Z,6.37
2019-03-12T19:40:13.108Z,4.63
2019-03-12T19:42:43.789Z,6.07
2019-03-12T19:45:14.643Z,1.70
2019-03-12T19:47:45.265Z,4.00
2019-03-12T19:50:17.613Z,11.47
2019-03-12T19:52:48.465Z,3.60
2019-03-12T19:55:21.581Z,6.17
2019-03-12T19:57:52.541Z,3.43
2019-03-12T20:00:24.878Z,1.73
2019-03-12T20:03:09.611Z,4.00
2019-03-12T20:05:31.239Z,9.80
2019-03-12T20:08:01.941Z,1.17
2019-03-12T20:11:14.768Z,4.93
2019-03-12T20:14:24.901Z,1.97
2019-03-12T20:17:42.265Z,6.73
2019-03-12T20:20:59.189Z,1.97
2019-03-12T20:24:34.246Z,5.20
2019-03-12T20:27:47.568Z,2.97
2019-03-12T20:31:05.948Z,4.27
2019-03-12T20:34:25.675Z,2.13
2019-03-12T20:37:43.823Z,5.20
2019-03-12T20:41:05.246Z,6.00
2019-03-12T20:44:18.014Z,4.10
2019-03-12T20:47:24.469Z,7.87
2019-03-12T20:50:36.719Z,7.67
2019-03-12T20:53:44.073Z,5.87
2019-03-12T20:56:53.101Z,3.27
2019-03-12T21:00:18.612Z,3.47
2019-03-12T21:03:29.473Z,1.43
2019-03-12T21:06:39.200Z,1.40
2019-03-12T21:09:53.207Z,2.90
2019-03-12T21:13:05.870Z,2.27
2019-03-12T21:16:25.807Z,4.33
2019-03-12T21:19:31.028Z,3.93
2019-03-12T21:22:39.269Z,1.57
2019-03-12T21:25:49.678Z,8.50
2019-03-12T21:29:06.373Z,4.07
2019-03-12T21:31:36.747Z,1.87
2019-03-12T21:34:06.813Z,2.67
2019-03-12T21:36:36.775Z,3.20
2019-03-12T21:39:09.094Z,2.63
2019-03-12T21:41:38.555Z,3.67
2019-03-12T21:44:08.310Z,1.60
2019-03-12T21:46:38.035Z,2.97
2019-03-12T21:49:07.591Z,3.10
2019-03-12T21:51:36.985Z,3.50
2019-03-12T21:54:06.325Z,5.67
2019-03-12T21:56:35.745Z,4.93
2019-03-12T21:59:05.414Z,5.50
2019-03-12T22:01:34.829Z,6.87
2019-03-12T22:04:04.233Z,4.67
2019-03-12T22:06:33.627Z,4.67
2019-03-12T22:09:03.909Z,6.30
2019-03-12T22:11:33.245Z,7.23
2019-03-12T22:14:02.766Z,5.53
2019-03-12T22:16:33.646Z,6.13
2019-03-12T22:19:03.028Z,8.53
2019-03-12T22:21:39.399Z,6.57
2019-03-12T22:24:08.971Z,7.60
2019-03-12T22:26:38.338Z,9.50
2019-03-12T22:29:07.714Z,7.43
2019-03-12T22:31:37.041Z,8.50
2019-03-12T22:34:06.418Z,9.17
2019-03-12T22:36:35.905Z,6.77
2019-03-12T22:39:06.214Z,9.10
2019-03-12T22:41:35.661Z,9.43
2019-03-12T22:44:05.353Z,8.63
2019-03-12T22:46:34.709Z,7.90
2019-03-12T22:49:04.065Z,10.83
2019-03-12T22:51:33.472Z,8.90
2019-03-12T22:54:02.847Z,10.57
2019-03-12T22:56:32.632Z,9.20
2019-03-12T22:59:02.001Z,8.67
2019-03-12T23:01:30.718Z,9.20
2019-03-12T23:03:59.425Z,11.10
2019-03-12T23:06:28.946Z,10.53
2019-03-12T23:08:57.814Z,10.17
2019-03-12T23:11:26.551Z,9.53
2019-03-12T23:13:55.281Z,10.97
2019-03-12T23:16:24.041Z,8.93
2019-03-12T23:18:53.223Z,10.93
2019-03-12T23:21:22.767Z,9.70
2019-03-12T23:23:52.133Z,11.47
2019-03-12T23:26:21.482Z,11.53
2019-03-12T23:28:50.967Z,11.20
2019-03-12T23:31:20.382Z,11.40
2019-03-12T23:33:49.742Z,15.70
2019-03-12T23:36:19.117Z,11.63
2019-03-12T23:38:48.480Z,12.13
2019-03-12T23:41:17.921Z,12.07
2019-03-12T23:43:47.433Z,11.60
2019-03-12T23:46:16.986Z,12.47
2019-03-12T23:48:46.355Z,12.23
2019-03-12T23:51:16.098Z,14.33
2019-03-12T23:53:45.554Z,10.93
2019-03-12T23:56:14.918Z,10.80
2019-03-12T23:58:44.301Z,15.03
